Aérodrome :
LOGIN :

S'inscrire | Disclaimer

   EN    FR    IT 

 










Légende :    VFR   VFR Marginal   IFR   IFR Intensif   IFR Très Intensif
Visi : 
Plafond : 
>= 8 km
>= 3000ft
5 à 8 km
1000 à 3000 ft
1500m à 5 km
500 à 1000 ft
800 à 1500m
200 à 500 ft
< 800m
< 200 ft
Symboles :   Orages  Brouillard  Fortes neiges  Fortes précipitations  Vent > 20 kt
SIGMETs :   Divers  Orages  Givrage  Turbulence  Onde Orograph.  Cendres Volcan.






- Altitude de l'aérodrome : 233 ft
- Code IATA : REU


LERS - Reus Tarragona

DERNIER METAR :
  • 151100Z 14008KT 080V200 9999 FEW019 SCT033 BKN045 29/22 Q1013

METARs EXPIRÉS :
  • 151030Z 14009KT 070V190 9999 FEW019 SCT033 BKN045 29/23 Q1013
  • 151000Z 14008KT 080V230 9999 FEW019 SCT033 BKN045 29/23 Q1013
  • 150930Z 14007KT 060V190 9999 FEW025 SCT033 BKN045 29/22 Q1013
  • 150900Z 13005KT 040V180 9999 FEW025 SCT033 BKN045 29/22 Q1013
  • 150830Z 13004KT 070V170 9999 FEW025 SCT033 27/22 Q1013

TAF AMD TAF LERS
Valide du 15 à 10h jusqu'au 16 à 09h UTC


151038Z 1510/1609 VRB03KT 9999 FEW025 TX31/1513Z TN21/1606Z
BECMG 1510/1512 18010KT
TEMPO 1512/1518 FEW040CB
PROB30
TEMPO 1512/1517 4000 TSRA SCT030CB BKN040
BECMG 1518/1521 VRB03KT



MET'MAP, la Météo Aéronautique d'un coup d'oeil ! - Copyright ORBIFLY Décembre 2007 - Disclaimer

ORBIFLY MET'MAP TEAM :

Programmation & Développement : Alexandra Zaïnal
Sur une idée originale de : Baudouin d'Aumeries
Assistance à la programmation : Marc-Olivier Méhu
Soutien technique & logistique : Manuel Goepfert

Contact : metmap@orbifly.com




SOURCES & CREDITS :

   NOAA